Date,TemperatureHighF,TemperatureAvgF,TemperatureLowF,DewpointHighF,DewpointAvgF,DewpointLowF,HumidityHigh,HumidityAvg,HumidityLow,PressureMaxIn,PressureMinIn,WindSpeedMaxMPH,WindSpeedAvgMPH,GustSpeedMaxMPH,PrecipitationSumIn
2013-1-4,30,27,22,28,26,22,100,99,90,30.32,30.28,3,1,5,0.00
2013-1-5,45,32,20,34,28,20,100,85,56,30.34,30.10,9,2,11,0.00
2013-1-6,45,35,20,39,32,20,100,88,74,30.32,29.96,13,4,19,0.00
2013-1-7,31,23,19,29,23,19,100,100,91,30.41,30.19,0,0,0,0.00
2013-1-9,52,47,42,52,47,42,100,100,100,30.40,30.22,5,1,9,0.00
2013-1-10,46,42,39,46,42,39,100,100,100,30.39,30.24,9,3,11,0.02
2013-1-11,67,59,53,64,58,53,100,96,78,29.91,29.80,14,5,25,0.03
2013-1-12,64,60,54,64,60,54,100,100,100,29.94,29.73,15,4,18,0.00
2013-1-13,65,55,36,65,55,36,100,100,99,30.08,29.70,18,5,24,0.19
2013-1-14,36,30,26,36,30,26,100,100,100,30.34,30.08,14,3,14,0.00
2013-1-15,31,28,26,31,28,26,100,100,100,30.23,29.91,13,5,17,0.00
2013-1-16,31,31,31,31,31,31,100,100,100,29.98,29.89,0,0,0,0.00
2013-1-17,37,33,26,37,33,26,100,100,100,30.31,30.01,13,5,16,0.00
2013-1-18,33,30,17,32,29,17,100,94,79,30.46,30.23,7,2,9,0.00
2013-1-19,54,40,31,32,30,28,96,71,38,30.24,29.93,20,6,22,0.00
2013-1-20,46,40,21,36,23,12,100,57,30,30.12,29.97,12,3,14,0.00
2013-1-21,33,24,18,21,16,9,99,73,38,30.10,30.01,23,2,27,0.00
2013-1-22,22,15,9,7,3,0,82,59,40,30.32,30.23,9,2,16,0.00
2013-1-23,34,19,7,20,12,4,98,76,44,30.32,30.00,11,2,14,0.00
2013-1-24,25,20,14,23,9,2,100,64,39,30.46,30.08,16,5,17,0.00
2013-1-25,26,22,19,26,19,9,100,88,63,30.31,29.98,11,2,14,0.00
2013-1-26,40,29,21,34,25,20,100,89,57,30.28,30.13,8,2,10,0.00
2013-1-27,42,40,39,42,40,36,100,99,83,30.17,30.10,7,4,11,0.00
2013-1-28,56,49,42,53,48,42,100,97,82,30.10,29.98,15,6,21,0.00
2013-1-29,67,60,50,65,59,50,100,97,79,29.99,29.52,20,9,29,0.00
2013-1-30,68,56,33,66,55,33,100,98,89,29.53,29.25,29,10,53,0.16
2013-1-31,30,26,17,30,26,17,100,99,85,30.01,29.82,15,6,22,0.00
2013-2-1,19,12,4,17,9,4,100,90,69,30.39,30.02,14,2,17,0.00
2013-2-2,32,20,12,32,20,12,100,100,100,30.29,29.94,12,3,15,0.00
2013-2-7,63,56,49,41,38,35,59,52,43,29.96,29.79,9,4,9,0.00
2013-2-8,38,37,34,38,37,34,100,100,100,30.16,29.90,8,2,10,0.00
2013-2-9,31,29,24,30,27,24,100,94,86,30.33,30.26,6,4,9,0.00
2013-2-10,51,42,35,51,37,26,100,82,58,30.09,29.75,16,5,16,0.00
2013-2-11,54,52,51,54,52,51,100,100,100,29.80,29.75,9,6,10,0.00
2013-2-12,50,44,36,35,30,26,78,57,42,30.05,29.86,9,1,9,0.00
2013-2-13,38,38,37,32,32,31,82,79,76,29.67,29.66,6,6,7,0.00
2013-2-19,40,32,20,36,27,19,100,80,50,30.11,29.80,21,7,26,0.01
2013-2-20,36,24,14,20,18,14,100,78,49,30.22,30.12,10,2,16,0.00
2013-2-21,37,31,16,31,24,16,100,77,56,30.27,29.93,13,7,20,0.01
2013-2-22,32,32,30,32,32,30,100,100,100,29.94,29.83,4,1,8,0.00
2013-2-23,33,30,27,30,28,27,100,95,86,29.90,29.85,1,0,3,0.00
2013-2-24,29,29,28,28,28,28,98,97,97,29.92,29.90,0,0,3,0.00
2013-2-25,49,40,24,30,27,24,100,61,43,30.07,29.72,16,8,21,0.00
2013-2-26,53,42,38,53,37,27,100,83,59,29.72,29.34,18,7,21,0.00
2013-2-27,39,38,37,39,38,37,100,100,100,29.64,29.54,14,7,21,0.00
2013-3-1,37,35,32,37,35,32,100,100,100,29.91,29.87,5,1,7,0.00
2013-3-3,35,31,29,32,26,22,100,82,65,30.01,29.96,8,2,11,0.00
2013-3-4,46,39,23,28,26,21,100,59,43,30.10,29.86,10,4,14,0.00
2013-3-5,46,39,29,46,36,27,100,90,60,29.86,29.47,14,3,23,0.04
2013-3-8,40,34,32,33,32,30,100,91,71,30.30,30.25,6,2,8,0.00
2013-3-9,65,44,29,38,33,29,100,71,29,30.26,29.97,11,3,13,0.01
2013-3-10,71,64,62,52,38,36,54,39,33,29.76,29.73,15,6,17,2.97
2013-3-11,61,53,41,57,46,35,100,83,38,29.74,29.55,19,6,28,0.90
2013-3-12,47,40,34,37,34,31,100,80,61,30.00,29.90,15,5,19,0.01
2013-3-13,35,31,23,35,26,18,100,81,53,30.29,29.98,8,2,14,0.00
2013-3-14,39,24,17,32,21,17,100,90,47,30.33,30.14,11,1,11,0.00
2013-3-16,61,52,46,51,48,46,100,87,68,29.88,29.59,11,5,16,0.00
2013-3-17,46,38,34,46,38,34,100,100,100,30.01,29.86,16,8,18,0.20
2013-3-18,56,43,34,56,43,34,100,100,100,29.86,29.54,12,5,18,1.90
2013-3-19,50,41,29,38,22,14,100,52,24,30.08,29.90,16,5,25,0.00
2013-3-20,47,37,21,26,20,12,74,52,39,30.02,29.82,15,5,25,0.00
2013-3-21,35,23,13,25,16,10,100,77,46,30.00,29.90,10,1,10,0.00
2013-3-22,37,36,36,23,22,22,59,56,55,29.95,29.94,0,0,0,0.00
2013-3-23,39,36,35,30,25,22,77,66,57,29.96,29.90,6,1,9,0.00
2013-3-24,39,37,34,39,37,34,100,100,100,29.54,29.31,14,7,18,0.65
2013-3-25,37,32,29,37,32,29,100,100,97,29.84,29.39,18,7,23,0.05
2013-3-26,40,34,30,38,34,30,100,98,78,30.18,29.96,7,1,11,0.06
2013-3-27,45,35,24,33,28,24,100,77,49,30.24,30.18,10,2,17,0.01
2013-3-28,49,33,23,35,27,23,100,83,45,30.28,30.22,8,1,10,0.00
2013-3-29,56,41,26,45,33,25,100,77,39,30.25,30.08,10,2,16,0.00
2013-3-30,60,45,31,48,38,31,100,80,41,30.18,29.86,14,2,16,0.00
2013-3-31,56,48,46,50,47,42,100,94,73,29.86,29.70,7,1,10,0.11
2013-4-1,53,45,32,47,36,23,100,73,43,30.06,29.76,10,2,13,0.00
2013-4-2,52,37,23,30,21,15,97,55,28,30.17,30.04,8,1,11,0.00
2013-4-3,49,41,29,25,21,17,67,45,34,30.26,30.16,14,6,18,0.00
2013-4-4,53,42,34,34,26,20,70,53,40,30.20,29.90,12,4,17,0.00
2013-4-5,65,44,30,39,35,30,100,75,30,29.98,29.87,7,1,10,0.00
2013-4-6,43,43,42,31,30,30,63,61,60,30.08,30.07,6,5,10,0.00
2013-4-7,66,60,55,47,43,40,59,54,47,29.88,29.01,15,4,19,0.00
2013-4-8,73,63,53,55,50,42,83,65,52,30.04,28.94,22,4,25,0.00
2013-4-9,79,68,58,62,58,53,97,74,50,30.09,29.94,21,4,24,0.00
2013-4-10,81,69,58,65,61,58,100,77,50,30.02,29.81,16,4,22,0.00
2013-4-11,75,65,57,68,61,57,100,88,66,29.83,29.56,10,2,15,0.83
2013-4-12,57,49,39,57,48,37,100,97,77,30.01,29.58,8,3,16,0.48
2013-4-13,60,46,32,43,38,32,100,75,46,30.10,29.98,12,3,17,0.00
2013-4-14,72,56,41,55,44,37,100,70,33,30.09,29.85,12,2,17,0.01
2013-4-15,71,61,55,61,58,55,100,90,64,30.02,29.92,11,4,12,0.00
2013-4-16,80,68,57,71,65,57,100,89,64,30.21,30.00,13,5,18,0.67
2013-4-17,70,63,58,70,63,58,100,100,99,30.20,30.00,14,3,15,1.06
2013-4-18,80,70,60,69,61,54,100,77,44,30.01,29.66,24,9,34,0.02
2013-4-19,71,49,38,65,44,36,100,84,63,30.12,29.54,18,7,21,0.63
2013-4-20,53,38,31,41,35,31,100,90,48,30.25,30.12,9,2,13,0.00
2013-4-21,58,54,47,39,36,32,61,49,43,30.46,30.32,13,5,15,0.00
2013-4-22,73,56,41,47,40,30,67,56,37,30.36,30.12,10,2,11,0.00
2013-4-23,70,59,44,57,49,41,100,72,55,30.18,29.95,12,3,15,0.00
2013-4-24,61,49,42,60,49,42,100,100,95,30.29,29.84,21,3,21,0.72
2013-4-25,59,44,30,47,37,30,100,79,49,30.40,30.28,15,2,16,0.00
2013-4-26,62,52,38,44,39,34,89,64,44,30.48,30.33,10,2,12,0.00
2013-4-27,57,53,49,57,51,40,100,92,65,30.37,30.08,13,2,19,0.12
2013-4-28,67,59,54,65,59,54,100,99,90,30.08,29.86,18,6,71,0.44
2013-4-29,65,56,51,62,56,51,100,98,83,30.04,29.96,8,1,10,0.00
2013-4-30,79,63,48,65,56,48,100,80,48,30.07,29.95,8,1,12,0.00
2013-5-1,81,67,54,66,60,54,100,80,50,30.16,30.06,9,1,12,0.00
2013-5-2,76,65,55,63,57,54,100,75,50,30.20,30.07,13,2,14,0.00
2013-5-3,73,64,55,64,56,41,100,80,44,30.10,29.92,9,3,17,0.00
2013-5-4,73,60,53,59,49,40,100,70,43,30.02,29.87,11,3,17,0.39
2013-5-5,53,50,47,53,50,47,100,100,100,30.00,29.88,14,7,20,1.73
2013-5-6,65,54,50,63,54,50,100,99,84,29.94,29.82,15,6,18,0.79
2013-5-7,72,59,51,64,57,51,100,93,65,29.97,29.88,10,2,13,0.01
2013-5-8,73,64,56,67,62,56,100,94,68,30.04,29.95,11,1,19,0.33
2013-5-9,77,62,52,69,59,52,100,92,54,30.07,29.95,9,1,11,0.01
2013-5-10,66,62,58,66,62,58,100,100,100,30.00,29.87,12,3,18,0.56
2013-5-11,61,57,52,61,57,52,100,100,94,30.00,29.86,8,1,14,0.16
2013-5-12,61,50,38,51,39,32,100,72,38,30.19,30.01,11,1,15,0.01
2013-5-13,65,51,34,43,37,34,100,63,35,30.22,30.11,10,1,18,0.00
2013-5-14,79,60,39,64,50,35,100,73,49,30.22,29.86,15,3,20,0.00
2013-5-15,83,73,65,66,61,54,99,70,42,29.98,29.86,14,5,20,0.00
2013-5-16,74,65,57,70,62,51,100,91,60,30.02,29.93,14,2,20,0.60
2013-5-17,77,67,59,73,65,59,100,94,66,30.06,29.98,8,1,11,0.01
2013-5-18,74,68,63,74,68,63,100,100,97,30.05,29.93,10,1,14,0.05
2013-5-19,84,71,63,77,69,63,100,93,62,30.01,29.86,8,1,12,0.01
2013-5-20,83,72,61,76,70,61,100,93,73,30.02,29.90,12,3,15,0.00
2013-5-21,85,71,63,77,68,62,100,91,56,29.97,29.83,14,3,23,0.10
2013-5-22,78,67,59,73,65,59,100,93,71,29.92,29.77,14,3,18,0.10
2013-5-23,74,64,56,71,63,56,100,95,66,30.04,29.86,11,2,16,0.13
2013-5-24,68,57,45,55,49,44,100,77,46,30.33,30.04,13,2,17,0.00
2013-5-25,68,56,41,55,48,41,100,77,44,30.38,30.20,8,0,12,0.00
2013-5-26,73,61,50,58,54,50,100,80,51,30.29,30.16,7,0,10,0.01
2013-5-27,82,68,55,65,59,54,100,76,40,30.21,29.98,11,2,20,0.00
2013-5-28,83,76,67,69,64,59,100,69,51,30.08,29.95,12,5,15,0.00
2013-5-31,83,76,69,74,70,66,100,85,60,30.05,29.98,18,5,20,0.15
2013-6-1,83,74,67,77,72,67,100,94,76,30.02,29.81,19,5,19,0.10
2013-6-2,78,69,62,73,68,62,100,97,73,29.94,29.83,9,2,13,0.00
2013-6-3,73,68,58,67,63,58,100,84,71,30.00,29.92,9,2,10,0.00
2013-6-4,73,73,73,63,63,63,71,71,71,29.99,29.99,3,3,0,0.00
2013-6-5,85,74,62,73,66,57,100,81,51,30.03,29.86,10,2,11,0.43
2013-6-6,68,65,63,68,65,63,100,100,100,29.89,29.80,6,2,9,0.00
2013-6-7,75,65,62,67,64,62,100,95,69,29.87,29.76,7,2,10,0.01
2013-6-8,80,68,59,72,65,59,100,89,64,30.05,29.87,7,1,9,0.00
2013-6-9,68,65,60,68,65,60,100,100,100,30.06,29.95,8,1,9,0.43
2013-6-10,77,68,63,73,67,63,100,98,74,29.95,29.81,12,2,17,0.82
2013-6-11,82,71,61,73,67,61,100,88,60,29.99,29.91,10,1,10,0.00
2013-6-12,90,79,66,82,74,66,100,87,61,29.96,29.78,11,2,13,0.00
2013-6-13,80,74,62,79,72,62,100,95,74,29.94,29.66,14,3,20,0.94
2013-6-14,82,69,55,66,62,55,100,80,50,30.06,29.93,8,1,11,0.00
2013-6-15,83,71,58,70,63,58,100,78,47,30.11,29.97,10,1,13,0.00
2013-6-16,82,71,63,76,69,63,100,93,71,30.05,29.94,9,1,12,0.31
2013-6-17,87,73,63,80,71,63,100,93,61,30.01,29.84,9,1,10,0.01
2013-6-18,84,71,61,76,67,61,100,90,56,30.01,29.82,12,1,16,1.00
2013-6-19,81,70,60,75,65,60,100,86,60,30.11,29.97,9,2,12,0.00
2013-6-20,86,73,61,72,65,61,100,78,46,30.18,30.09,9,1,12,0.00
2013-6-21,86,75,63,75,69,63,100,84,54,30.20,30.08,8,2,10,0.00
2013-6-22,87,76,64,75,69,64,100,83,49,30.18,30.04,8,2,11,0.00
2013-6-23,86,75,63,75,69,63,100,84,54,30.16,30.03,10,2,13,0.00
2013-6-24,85,73,67,79,72,67,100,96,72,30.15,30.05,8,1,21,0.06
2013-6-25,88,77,65,80,73,65,100,91,65,30.11,29.92,9,1,13,0.00
2013-6-26,86,74,66,81,72,66,100,96,68,30.00,29.79,13,2,18,1.65
2013-6-27,88,73,65,83,72,65,100,97,76,29.87,29.72,10,1,18,0.57
2013-6-28,85,77,66,76,69,60,100,79,47,29.77,29.59,10,2,15,0.00
2013-6-29,81,71,62,72,66,62,100,85,59,29.72,29.58,10,2,15,0.09
2013-6-30,80,69,62,70,65,62,100,88,60,29.82,29.68,6,0,10,0.10
2013-7-1,81,68,60,78,68,60,100,98,84,29.95,29.79,11,1,13,0.70
2013-7-2,80,69,60,76,68,60,100,98,72,30.04,29.92,9,1,11,0.16
2013-7-3,77,70,65,77,70,65,100,100,100,30.13,30.03,10,1,11,0.02
2013-7-4,69,67,64,69,67,64,100,100,100,30.16,30.09,9,1,13,1.87
2013-7-5,74,69,64,74,69,64,100,100,100,30.15,30.09,9,1,11,1.21
2013-7-6,75,69,66,75,69,66,100,100,100,30.16,30.07,9,1,16,0.54
2013-7-7,82,74,65,79,70,65,100,86,62,30.13,30.02,10,1,12,0.18
2013-7-8,87,81,69,79,73,69,100,79,60,30.14,30.04,10,1,10,0.00
2013-7-9,72,71,71,72,71,71,100,100,100,30.12,30.09,4,0,5,0.00
2013-7-10,89,76,67,84,75,67,100,96,74,30.01,29.83,10,2,15,0.48
2013-7-11,85,73,67,79,71,67,100,94,65,30.00,29.88,11,1,17,0.00
2013-7-12,67,66,66,67,66,66,100,100,100,30.01,30.00,7,4,11,0.00
2013-7-13,74,72,70,74,72,70,100,100,100,30.10,30.05,6,1,9,0.07
2013-7-14,88,77,67,82,75,67,100,94,67,30.21,30.09,9,1,11,0.00
2013-7-15,89,78,68,78,73,68,100,87,56,30.28,30.18,8,1,10,0.00
2013-7-16,93,81,70,81,74,69,100,83,49,30.30,30.20,4,0,7,0.00
2013-7-17,76,74,72,76,74,72,100,100,100,30.29,30.20,0,0,0,0.00
2013-7-18,93,80,70,92,77,70,100,93,58,30.21,30.00,6,0,8,0.35
2013-7-19,89,78,69,84,76,69,100,96,69,30.08,29.91,8,1,14,0.04
2013-7-20,87,79,71,82,75,71,100,90,64,29.97,29.83,13,2,13,0.00
2013-7-21,86,76,69,81,75,69,100,95,72,29.98,29.85,9,1,13,0.74
2013-7-22,76,72,69,76,72,69,100,100,100,29.94,29.79,8,1,13,1.08
2013-7-23,86,76,69,81,74,69,100,95,72,29.87,29.74,10,1,12,0.18
2013-7-24,80,70,63,73,68,63,100,92,62,29.96,29.82,8,1,12,0.01
2013-7-25,79,68,59,70,64,59,100,87,57,30.10,29.97,10,2,12,0.00
2013-7-26,80,69,56,70,64,56,100,85,58,30.10,29.98,7,1,9,0.00
2013-7-27,77,68,63,73,68,63,100,98,83,30.00,29.86,8,1,10,0.03
2013-7-28,75,65,53,65,57,52,100,77,47,30.11,29.93,8,1,12,0.00
2013-7-29,80,66,52,68,59,52,100,82,52,30.20,30.10,9,1,10,0.00
2013-7-30,79,68,59,73,65,59,100,94,64,30.24,30.12,6,0,8,0.03
2013-7-31,75,68,62,75,68,62,100,100,100,30.16,29.95,8,1,11,0.20
2013-8-1,85,72,64,78,68,63,100,88,59,30.02,29.92,4,0,11,0.00
2013-8-2,83,71,60,73,65,60,100,83,50,30.05,29.98,10,1,10,0.00
2013-8-3,83,74,66,79,72,66,100,94,71,30.04,29.92,9,1,15,0.00
2013-8-4,83,70,60,69,62,58,100,79,47,30.12,30.03,9,1,13,0.00
2013-8-5,82,68,57,66,60,56,100,80,45,30.14,29.96,9,1,10,0.00
2013-8-6,82,73,65,78,71,65,100,95,75,30.00,29.91,8,1,10,0.00
2013-8-7,82,75,69,82,74,69,100,100,90,29.97,29.87,13,2,17,1.44
2013-8-8,81,74,70,81,74,70,100,100,100,29.97,29.89,10,1,11,0.75
2013-8-9,84,74,69,82,74,69,100,99,85,30.04,29.92,9,2,14,1.03
2013-8-10,81,73,70,80,73,70,100,100,98,30.09,30.02,7,1,10,0.36
2013-8-11,87,75,69,81,73,69,100,94,67,30.11,29.99,7,0,10,0.01
2013-8-22,66,66,66,66,66,66,100,100,100,30.14,30.14,0,0,0,0.00
2013-8-28,89,83,76,78,75,71,100,81,58,29.96,29.89,8,2,13,0.00
2013-8-29,85,76,69,81,74,69,100,93,68,30.02,29.93,10,1,13,0.00
2013-8-30,90,76,65,80,71,65,100,87,52,30.02,29.84,6,0,9,0.00
2013-8-31,86,72,67,84,72,67,100,99,85,29.97,29.78,10,2,25,2.18
2013-9-1,68,67,67,68,67,67,100,100,100,29.91,29.84,5,2,10,0.04
2013-9-3,83,74,61,70,66,60,100,75,57,30.06,29.94,6,0,11,0.00
2013-9-10,68,68,68,68,68,68,100,100,100,30.11,30.11,0,0,0,0.00
2013-9-14,71,62,51,57,51,48,100,69,46,30.16,30.06,11,3,15,0.00
2013-9-15,78,62,48,67,58,48,100,88,61,30.18,30.03,11,1,16,0.00
2013-9-16,71,64,58,69,64,58,100,98,80,30.27,30.09,11,1,12,0.00
2013-9-17,76,63,52,64,58,52,100,85,54,30.30,30.12,11,2,17,0.00
2013-9-18,70,66,59,70,66,59,100,100,100,30.18,30.10,10,2,12,0.00
2013-9-19,80,70,63,77,70,63,100,98,86,30.14,30.01,8,1,12,0.00
2013-9-20,83,73,65,74,69,65,100,90,62,30.04,29.83,9,1,14,0.00
2013-9-21,75,65,53,70,62,53,100,92,58,29.91,29.71,10,1,12,0.98
2013-9-22,68,54,49,59,53,49,100,96,65,29.98,29.90,10,1,12,0.00
2013-9-24,78,74,70,64,63,60,76,69,55,29.97,29.87,0,0,0,0.00
2013-9-25,72,69,66,66,66,66,100,91,82,29.88,29.86,2,1,2,0.00
2013-9-26,62,62,62,62,62,62,100,100,100,30.06,30.06,0,0,0,0.00
2013-9-30,63,63,63,63,63,63,100,100,100,30.04,30.04,0,0,0,0.00
2013-10-1,64,60,55,64,60,55,100,100,100,30.13,30.04,4,0,6,0.00
2013-10-2,83,68,58,76,66,58,100,95,67,30.15,30.01,7,0,11,0.00
2013-10-3,81,69,65,77,68,65,100,97,74,30.12,30.02,6,0,10,0.12
2013-10-4,83,71,61,73,67,61,100,90,61,30.13,30.01,4,0,8,0.00
2013-10-5,83,71,64,73,68,64,100,92,64,30.10,29.94,8,0,12,0.03
2013-10-6,79,66,52,74,65,52,100,98,72,29.97,29.74,13,3,20,2.13
2013-10-7,68,54,44,56,49,44,100,86,49,30.20,29.91,10,1,13,0.11
2013-10-8,67,54,43,54,48,43,100,83,53,30.26,30.14,15,3,17,0.00
2013-10-9,67,51,45,58,50,45,100,97,69,30.23,30.19,5,1,8,0.00
2013-10-10,58,57,57,51,50,50,79,78,77,30.10,30.09,0,0,0,0.00
2013-10-11,81,64,47,63,54,47,100,76,41,30.14,29.96,0,0,0,0.00
2013-10-12,81,65,51,66,58,51,100,81,47,30.14,30.00,4,0,6,0.00
2013-10-13,80,65,51,72,61,51,100,89,56,30.27,30.14,5,0,10,0.00
2013-10-14,76,63,55,64,60,54,100,91,62,30.31,30.12,9,2,13,0.00
2013-10-15,73,64,58,69,63,58,100,96,76,30.19,29.98,11,1,12,0.00
2013-10-16,65,61,56,65,61,56,100,100,100,30.00,29.94,8,1,15,0.21
2013-10-17,56,53,51,56,53,51,100,100,100,29.98,29.91,6,1,8,0.27
2013-10-18,66,54,36,57,47,36,100,79,51,30.12,29.95,9,1,11,0.00
2013-10-19,51,46,39,51,46,39,100,100,100,30.10,29.90,11,1,21,0.17
2013-10-20,61,46,33,50,40,33,100,82,50,30.14,30.02,11,2,14,0.00
2013-10-21,67,52,36,51,42,36,100,76,40,30.12,29.92,13,2,16,0.00
2013-10-22,60,49,37,51,40,30,100,74,37,30.12,29.89,8,1,11,0.09
2013-10-23,47,42,36,46,41,36,100,97,77,30.14,29.79,12,2,16,0.04
2013-10-24,44,38,34,40,37,34,100,98,71,30.20,30.12,6,1,9,0.00
2013-10-25,51,40,25,38,30,25,100,70,46,30.50,30.38,7,1,12,0.00
2013-10-26,54,39,25,38,32,25,100,78,48,30.40,30.02,13,3,20,0.00
2013-10-27,64,48,34,50,42,34,100,80,50,30.16,30.03,7,1,13,0.00
2013-10-28,60,52,46,60,52,43,100,99,86,30.30,30.13,7,0,9,0.00
2013-10-29,60,52,43,59,52,43,100,100,100,30.37,30.21,6,0,7,0.04
2013-10-30,67,60,55,67,60,55,100,100,100,30.96,30.09,15,2,16,0.67
2013-10-31,68,65,62,68,64,59,100,97,79,30.55,29.70,28,11,33,0.00
2013-11-1,66,61,52,66,61,52,100,100,100,30.05,29.83,24,10,35,0.00
2013-11-4,61,52,38,44,42,38,100,69,53,30.44,30.31,10,2,16,0.00
2013-11-5,66,54,47,46,41,36,88,64,36,30.45,30.28,10,1,14,0.00
2013-11-6,70,58,45,63,52,38,100,81,62,30.29,30.00,22,5,25,0.40
2013-11-7,56,44,30,56,38,26,100,83,46,30.35,30.04,7,1,13,0.26
2013-11-8,56,41,27,38,31,25,100,71,39,30.44,30.28,8,1,10,0.00
2013-11-9,60,40,29,35,31,28,100,77,30,30.34,30.13,14,3,24,0.00
2013-11-13,41,32,18,34,23,18,100,72,46,30.72,30.52,9,1,11,0.00
2013-11-14,55,37,21,29,23,19,100,64,28,30.52,30.24,13,2,17,0.00
2013-11-15,57,44,32,48,34,22,100,69,44,30.28,30.13,14,1,16,0.02
2013-11-16,62,53,41,62,53,41,100,100,97,30.29,30.02,15,4,20,0.01
2013-11-17,64,61,50,64,60,47,100,98,72,30.63,29.93,22,9,28,0.76
2013-11-18,58,47,33,48,39,29,100,78,41,30.27,30.04,11,1,19,0.00
2013-11-19,45,35,26,35,31,26,100,87,62,30.37,30.27,13,4,17,0.00
2013-11-20,57,40,26,38,32,26,100,76,43,30.37,30.20,9,3,12,0.00
2013-11-21,63,50,38,57,44,31,100,81,62,30.37,30.21,15,3,19,0.00
2013-11-22,57,51,37,57,51,37,100,100,100,30.40,30.20,10,2,15,0.45
2013-11-23,46,34,20,37,28,15,100,83,37,30.61,30.34,12,2,14,0.00
2013-11-24,30,20,10,20,14,8,100,77,48,30.74,30.60,13,2,18,0.00
2013-11-25,42,30,17,33,21,15,100,74,40,30.60,30.27,10,2,16,0.00
2013-11-26,34,32,30,34,32,30,100,100,100,30.28,29.96,8,2,11,0.28
2013-11-27,32,25,15,30,25,15,100,98,83,30.42,29.99,8,1,13,0.08
2013-11-28,36,23,13,26,20,12,100,90,65,30.56,30.36,15,2,18,0.00
2013-11-29,46,31,17,31,25,17,100,82,52,30.66,30.54,8,1,9,0.01
2013-11-30,55,38,25,35,30,25,100,76,45,30.57,30.28,17,2,18,0.00
2013-12-1,48,42,33,38,33,29,90,71,60,30.30,30.03,10,2,14,0.00
2013-12-2,56,45,36,46,42,36,100,87,61,30.03,29.80,9,1,10,0.00
2013-12-3,55,48,42,55,48,42,100,100,96,29.91,29.82,10,2,11,0.00
2013-12-4,67,64,62,64,62,60,100,94,83,29.86,29.76,15,8,19,0.00
2013-12-5,42,38,34,42,38,34,100,100,100,30.18,30.06,12,5,14,1.40
2013-12-6,34,31,27,34,31,27,100,100,100,30.41,30.15,10,5,17,1.02
2013-12-7,27,25,22,27,25,22,100,100,100,30.61,30.41,9,3,11,0.00
2013-12-8,32,28,22,32,28,22,100,100,100,30.55,30.17,9,1,12,0.00
2013-12-9,32,30,26,32,30,26,100,100,100,30.39,30.24,8,2,12,0.12
2013-12-10,26,24,19,26,24,19,100,100,100,30.46,30.30,5,0,8,0.00
2013-12-11,41,27,16,32,23,16,100,88,52,30.56,30.34,18,3,21,0.00
2013-12-12,30,20,6,22,13,6,100,77,45,30.68,30.46,10,2,13,0.00
2013-12-13,45,30,17,32,21,15,97,71,39,30.47,30.19,11,1,12,0.01
2013-12-14,44,38,34,44,36,25,100,93,56,30.20,29.78,13,4,24,0.49
2013-12-15,33,30,27,33,30,27,100,100,100,30.22,29.95,14,3,19,0.00
2013-12-16,34,30,28,34,30,28,100,100,100,30.22,30.18,11,4,15,0.00
2013-12-17,40,34,27,40,34,27,100,100,89,30.31,30.06,8,2,13,0.01
2013-12-18,42,30,22,30,22,17,100,76,39,30.36,30.20,10,2,16,0.00
2013-12-19,60,46,34,40,30,23,64,52,39,30.23,30.08,13,4,18,0.00
2013-12-20,59,54,50,59,47,30,100,79,46,30.08,29.93,16,6,20,0.22
2013-12-21,70,63,57,69,62,57,100,100,88,29.99,29.60,24,7,29,0.43
2013-12-22,59,55,45,58,54,45,100,97,73,30.08,29.68,18,6,27,0.70
2013-12-23,44,33,23,44,31,23,100,92,65,30.47,30.08,9,1,11,0.06
2013-12-24,25,21,14,25,21,14,100,100,100,30.60,30.46,5,1,9,0.00
2013-12-25,34,16,13,22,15,13,100,96,56,30.59,30.41,10,1,10,0.00
2013-12-27,51,42,32,31,25,22,88,54,35,30.47,30.36,10,2,12,0.00
2013-12-28,49,38,27,36,28,23,93,68,45,30.42,30.10,9,2,11,0.04
2013-12-29,45,39,31,45,39,31,100,100,95,30.12,29.91,11,2,18,0.80
2013-12-30,31,28,21,31,28,21,100,100,100,30.33,30.12,6,1,11,0.00
2013-12-31,38,26,19,26,23,19,100,88,56,30.46,30.30,13,3,16,0.00
2014-1-1,48,36,26,32,27,24,100,75,43,30.38,30.08,12,3,16,0.00
2014-1-2,37,32,11,36,28,11,100,84,69,30.36,29.93,4,0,9,0.26